Terminal Aerodrome Forecast
Issued by NWS Memphis, TN

Home | Current Version | Previous Version | Text Only | Print | Product List | Glossary On
Versions: 1 2 3 4 5 6 7 8 9 10 11 12 13 14 15 16 17 18
000
FTUS44 KMEG 291732
TAFMKL
TAF
KMKL 291732Z 2918/3018 05005KT P6SM SCT040 SCT250
     FM300100 00000KT P6SM FEW250
      TEMPO 3009/3012 5SM BR
     FM301600 08003KT P6SM SCT040=

USA.gov is the U.S. government's official web portal to all federal, state and local government web resources and services.